sensor_id;sensor_type;location;lat;lon;timestamp;P1;durP1;ratioP1;P2;durP2;ratioP2
8891;SDS011;4482;54.332;10.118;2022-09-09T00:01:37;51.97;;;29.20;;
8891;SDS011;4482;54.332;10.118;2022-09-09T00:04:10;56.57;;;31.30;;
8891;SDS011;4482;54.332;10.118;2022-09-09T00:06:43;53.07;;;29.37;;
8891;SDS011;4482;54.332;10.118;2022-09-09T00:09:12;55.00;;;29.83;;
8891;SDS011;4482;54.332;10.118;2022-09-09T00:11:42;57.97;;;30.47;;
8891;SDS011;4482;54.332;10.118;2022-09-09T00:14:15;53.47;;;30.03;;
8891;SDS011;4482;54.332;10.118;2022-09-09T00:16:49;53.63;;;29.87;;
8891;SDS011;4482;54.332;10.118;2022-09-09T00:19:22;55.27;;;30.17;;
8891;SDS011;4482;54.332;10.118;2022-09-09T00:21:53;58.17;;;30.17;;
8891;SDS011;4482;54.332;10.118;2022-09-09T00:24:32;54.43;;;30.47;;
8891;SDS011;4482;54.332;10.118;2022-09-09T00:27:06;54.53;;;30.57;;
8891;SDS011;4482;54.332;10.118;2022-09-09T00:29:41;59.00;;;31.60;;
8891;SDS011;4482;54.332;10.118;2022-09-09T00:32:12;56.07;;;30.67;;
8891;SDS011;4482;54.332;10.118;2022-09-09T00:34:46;62.67;;;33.47;;
8891;SDS011;4482;54.332;10.118;2022-09-09T00:37:15;54.93;;;31.10;;
8891;SDS011;4482;54.332;10.118;2022-09-09T00:39:42;57.10;;;31.57;;
8891;SDS011;4482;54.332;10.118;2022-09-09T00:42:13;55.40;;;31.77;;
8891;SDS011;4482;54.332;10.118;2022-09-09T00:44:55;65.30;;;33.00;;
8891;SDS011;4482;54.332;10.118;2022-09-09T00:47:33;65.33;;;33.13;;
8891;SDS011;4482;54.332;10.118;2022-09-09T00:50:17;59.60;;;33.27;;
8891;SDS011;4482;54.332;10.118;2022-09-09T00:53:08;56.90;;;32.37;;
8891;SDS011;4482;54.332;10.118;2022-09-09T00:55:47;56.90;;;32.93;;
8891;SDS011;4482;54.332;10.118;2022-09-09T00:58:18;57.03;;;32.90;;
8891;SDS011;4482;54.332;10.118;2022-09-09T01:00:47;58.10;;;30.90;;
8891;SDS011;4482;54.332;10.118;2022-09-09T01:03:22;56.57;;;31.10;;
8891;SDS011;4482;54.332;10.118;2022-09-09T01:06:01;56.03;;;31.93;;
8891;SDS011;4482;54.332;10.118;2022-09-09T01:08:57;51.70;;;31.53;;
8891;SDS011;4482;54.332;10.118;2022-09-09T01:11:43;52.40;;;30.33;;
8891;SDS011;4482;54.332;10.118;2022-09-09T01:14:24;50.90;;;29.10;;
8891;SDS011;4482;54.332;10.118;2022-09-09T01:17:00;54.53;;;31.17;;
8891;SDS011;4482;54.332;10.118;2022-09-09T01:19:38;53.93;;;30.80;;
8891;SDS011;4482;54.332;10.118;2022-09-09T01:22:16;54.17;;;30.17;;
8891;SDS011;4482;54.332;10.118;2022-09-09T01:25:01;47.57;;;29.10;;
8891;SDS011;4482;54.332;10.118;2022-09-09T01:27:54;47.33;;;28.50;;
8891;SDS011;4482;54.332;10.118;2022-09-09T01:30:25;47.70;;;27.73;;
8891;SDS011;4482;54.332;10.118;2022-09-09T01:32:54;45.13;;;27.93;;
8891;SDS011;4482;54.332;10.118;2022-09-09T01:35:28;49.20;;;29.27;;
8891;SDS011;4482;54.332;10.118;2022-09-09T01:38:09;53.37;;;29.87;;
8891;SDS011;4482;54.332;10.118;2022-09-09T01:40:38;47.77;;;28.87;;
8891;SDS011;4482;54.332;10.118;2022-09-09T01:43:07;48.77;;;28.23;;
8891;SDS011;4482;54.332;10.118;2022-09-09T01:45:34;48.90;;;29.47;;
8891;SDS011;4482;54.332;10.118;2022-09-09T01:48:01;46.33;;;28.07;;
8891;SDS011;4482;54.332;10.118;2022-09-09T01:50:28;44.67;;;26.90;;
8891;SDS011;4482;54.332;10.118;2022-09-09T01:52:56;48.90;;;29.20;;
8891;SDS011;4482;54.332;10.118;2022-09-09T01:55:30;43.47;;;26.07;;
8891;SDS011;4482;54.332;10.118;2022-09-09T01:58:14;48.90;;;28.03;;
8891;SDS011;4482;54.332;10.118;2022-09-09T02:01:24;50.40;;;27.67;;
8891;SDS011;4482;54.332;10.118;2022-09-09T02:04:03;44.07;;;26.37;;
8891;SDS011;4482;54.332;10.118;2022-09-09T02:06:55;46.67;;;26.90;;
8891;SDS011;4482;54.332;10.118;2022-09-09T02:09:49;47.53;;;26.90;;
8891;SDS011;4482;54.332;10.118;2022-09-09T02:15:34;45.57;;;26.43;;
8891;SDS011;4482;54.332;10.118;2022-09-09T02:21:21;46.07;;;26.57;;
8891;SDS011;4482;54.332;10.118;2022-09-09T02:24:25;51.57;;;26.30;;
8891;SDS011;4482;54.332;10.118;2022-09-09T02:27:08;43.57;;;26.93;;
8891;SDS011;4482;54.332;10.118;2022-09-09T02:29:38;139.57;;;94.93;;
8891;SDS011;4482;54.332;10.118;2022-09-09T02:32:08;54.07;;;32.23;;
8891;SDS011;4482;54.332;10.118;2022-09-09T02:34:42;48.47;;;27.50;;
8891;SDS011;4482;54.332;10.118;2022-09-09T02:37:37;48.47;;;28.00;;
8891;SDS011;4482;54.332;10.118;2022-09-09T02:40:13;39.23;;;25.30;;
8891;SDS011;4482;54.332;10.118;2022-09-09T03:10:00;56.90;;;29.83;;
8891;SDS011;4482;54.332;10.118;2022-09-09T03:12:30;54.10;;;28.77;;
8891;SDS011;4482;54.332;10.118;2022-09-09T03:15:39;60.60;;;30.63;;
8891;SDS011;4482;54.332;10.118;2022-09-09T03:18:12;64.37;;;29.50;;
8891;SDS011;4482;54.332;10.118;2022-09-09T03:20:51;59.37;;;30.43;;
8891;SDS011;4482;54.332;10.118;2022-09-09T03:36:51;73.93;;;34.77;;
8891;SDS011;4482;54.332;10.118;2022-09-09T03:45:58;78.17;;;37.43;;
8891;SDS011;4482;54.332;10.118;2022-09-09T03:48:26;83.20;;;35.80;;
8891;SDS011;4482;54.332;10.118;2022-09-09T03:50:57;84.90;;;34.30;;
8891;SDS011;4482;54.332;10.118;2022-09-09T04:00:26;83.63;;;37.30;;
8891;SDS011;4482;54.332;10.118;2022-09-09T04:03:01;89.53;;;37.90;;
8891;SDS011;4482;54.332;10.118;2022-09-09T04:08:52;92.47;;;37.17;;
8891;SDS011;4482;54.332;10.118;2022-09-09T04:15:15;85.87;;;34.67;;
8891;SDS011;4482;54.332;10.118;2022-09-09T04:18:06;79.33;;;35.17;;
8891;SDS011;4482;54.332;10.118;2022-09-09T04:20:53;78.77;;;35.17;;
8891;SDS011;4482;54.332;10.118;2022-09-09T04:27:00;67.60;;;30.63;;
8891;SDS011;4482;54.332;10.118;2022-09-09T04:29:36;69.60;;;30.13;;
8891;SDS011;4482;54.332;10.118;2022-09-09T04:32:06;69.03;;;31.70;;
8891;SDS011;4482;54.332;10.118;2022-09-09T04:44:47;75.47;;;33.10;;
8891;SDS011;4482;54.332;10.118;2022-09-09T04:47:54;71.47;;;32.10;;
8891;SDS011;4482;54.332;10.118;2022-09-09T04:50:28;74.20;;;32.70;;
8891;SDS011;4482;54.332;10.118;2022-09-09T04:53:10;72.60;;;32.03;;
8891;SDS011;4482;54.332;10.118;2022-09-09T04:56:36;70.53;;;31.93;;
8891;SDS011;4482;54.332;10.118;2022-09-09T04:59:06;79.73;;;33.67;;
8891;SDS011;4482;54.332;10.118;2022-09-09T05:02:02;72.33;;;31.80;;
8891;SDS011;4482;54.332;10.118;2022-09-09T05:04:35;75.97;;;33.53;;
8891;SDS011;4482;54.332;10.118;2022-09-09T05:07:04;74.87;;;33.47;;
8891;SDS011;4482;54.332;10.118;2022-09-09T05:09:31;69.57;;;33.20;;
8891;SDS011;4482;54.332;10.118;2022-09-09T05:12:14;66.23;;;33.17;;
8891;SDS011;4482;54.332;10.118;2022-09-09T05:14:45;79.70;;;33.23;;
8891;SDS011;4482;54.332;10.118;2022-09-09T05:17:22;79.73;;;35.57;;
8891;SDS011;4482;54.332;10.118;2022-09-09T05:19:57;70.43;;;34.00;;
8891;SDS011;4482;54.332;10.118;2022-09-09T05:22:52;76.93;;;33.53;;
8891;SDS011;4482;54.332;10.118;2022-09-09T05:25:23;80.00;;;36.37;;
8891;SDS011;4482;54.332;10.118;2022-09-09T05:28:35;83.67;;;36.30;;
8891;SDS011;4482;54.332;10.118;2022-09-09T05:31:09;72.10;;;32.57;;
8891;SDS011;4482;54.332;10.118;2022-09-09T05:33:58;84.43;;;43.17;;
8891;SDS011;4482;54.332;10.118;2022-09-09T05:39:52;74.73;;;34.83;;
8891;SDS011;4482;54.332;10.118;2022-09-09T05:42:46;67.47;;;31.57;;
8891;SDS011;4482;54.332;10.118;2022-09-09T06:16:24;61.27;;;31.43;;
8891;SDS011;4482;54.332;10.118;2022-09-09T06:19:01;60.63;;;31.87;;
8891;SDS011;4482;54.332;10.118;2022-09-09T06:25:18;71.83;;;32.13;;
8891;SDS011;4482;54.332;10.118;2022-09-09T06:31:30;63.53;;;28.40;;
8891;SDS011;4482;54.332;10.118;2022-09-09T06:37:49;63.10;;;27.13;;
8891;SDS011;4482;54.332;10.118;2022-09-09T06:40:35;63.63;;;28.93;;
8891;SDS011;4482;54.332;10.118;2022-09-09T06:43:47;68.47;;;30.70;;
8891;SDS011;4482;54.332;10.118;2022-09-09T06:49:47;57.27;;;29.27;;
8891;SDS011;4482;54.332;10.118;2022-09-09T06:59:12;62.27;;;32.23;;
8891;SDS011;4482;54.332;10.118;2022-09-09T07:02:12;66.70;;;30.13;;
8891;SDS011;4482;54.332;10.118;2022-09-09T07:05:15;59.73;;;28.83;;
8891;SDS011;4482;54.332;10.118;2022-09-09T07:07:43;62.27;;;29.37;;
8891;SDS011;4482;54.332;10.118;2022-09-09T07:10:10;59.20;;;29.17;;
8891;SDS011;4482;54.332;10.118;2022-09-09T07:12:37;55.53;;;29.10;;
8891;SDS011;4482;54.332;10.118;2022-09-09T07:15:04;52.43;;;27.90;;
8891;SDS011;4482;54.332;10.118;2022-09-09T07:17:33;47.17;;;26.03;;
8891;SDS011;4482;54.332;10.118;2022-09-09T07:20:00;47.83;;;26.33;;
8891;SDS011;4482;54.332;10.118;2022-09-09T07:22:28;45.90;;;24.47;;
8891;SDS011;4482;54.332;10.118;2022-09-09T07:24:55;39.60;;;24.90;;
8891;SDS011;4482;54.332;10.118;2022-09-09T07:27:22;39.67;;;25.23;;
8891;SDS011;4482;54.332;10.118;2022-09-09T07:29:49;37.73;;;25.50;;
8891;SDS011;4482;54.332;10.118;2022-09-09T07:32:16;36.33;;;23.07;;
8891;SDS011;4482;54.332;10.118;2022-09-09T07:35:16;34.93;;;23.30;;
8891;SDS011;4482;54.332;10.118;2022-09-09T07:37:43;29.73;;;20.90;;
8891;SDS011;4482;54.332;10.118;2022-09-09T07:40:10;32.77;;;21.97;;
8891;SDS011;4482;54.332;10.118;2022-09-09T07:42:37;36.17;;;23.10;;
8891;SDS011;4482;54.332;10.118;2022-09-09T07:45:04;33.83;;;22.27;;
8891;SDS011;4482;54.332;10.118;2022-09-09T07:47:31;30.63;;;22.43;;
8891;SDS011;4482;54.332;10.118;2022-09-09T07:49:58;32.50;;;22.73;;
8891;SDS011;4482;54.332;10.118;2022-09-09T07:52:27;29.73;;;21.73;;
8891;SDS011;4482;54.332;10.118;2022-09-09T07:54:53;31.07;;;22.80;;
8891;SDS011;4482;54.332;10.118;2022-09-09T07:57:21;30.90;;;22.30;;
8891;SDS011;4482;54.332;10.118;2022-09-09T07:59:48;30.50;;;20.60;;
8891;SDS011;4482;54.332;10.118;2022-09-09T08:02:15;30.60;;;21.67;;
8891;SDS011;4482;54.332;10.118;2022-09-09T08:04:42;28.97;;;21.30;;
8891;SDS011;4482;54.332;10.118;2022-09-09T08:07:09;26.00;;;19.93;;
8891;SDS011;4482;54.332;10.118;2022-09-09T08:09:37;26.03;;;19.60;;
8891;SDS011;4482;54.332;10.118;2022-09-09T08:12:04;24.27;;;19.10;;
8891;SDS011;4482;54.332;10.118;2022-09-09T08:14:34;23.57;;;17.93;;
8891;SDS011;4482;54.332;10.118;2022-09-09T08:17:01;21.07;;;18.03;;
8891;SDS011;4482;54.332;10.118;2022-09-09T08:19:28;22.47;;;17.20;;
8891;SDS011;4482;54.332;10.118;2022-09-09T08:21:55;20.57;;;16.77;;
8891;SDS011;4482;54.332;10.118;2022-09-09T08:24:26;19.77;;;16.70;;
8891;SDS011;4482;54.332;10.118;2022-09-09T08:26:55;17.77;;;15.80;;
8891;SDS011;4482;54.332;10.118;2022-09-09T08:29:23;17.60;;;15.10;;
8891;SDS011;4482;54.332;10.118;2022-09-09T08:31:51;17.70;;;15.33;;
8891;SDS011;4482;54.332;10.118;2022-09-09T08:34:19;16.77;;;14.13;;
8891;SDS011;4482;54.332;10.118;2022-09-09T08:36:47;17.87;;;13.50;;
8891;SDS011;4482;54.332;10.118;2022-09-09T08:39:16;15.23;;;12.90;;
8891;SDS011;4482;54.332;10.118;2022-09-09T08:44:54;15.33;;;13.77;;
8891;SDS011;4482;54.332;10.118;2022-09-09T08:47:34;20.07;;;12.77;;
8891;SDS011;4482;54.332;10.118;2022-09-09T08:50:13;14.93;;;12.40;;
8891;SDS011;4482;54.332;10.118;2022-09-09T08:52:51;15.67;;;13.47;;
8891;SDS011;4482;54.332;10.118;2022-09-09T08:55:24;13.27;;;11.97;;
8891;SDS011;4482;54.332;10.118;2022-09-09T08:57:58;15.40;;;12.57;;
8891;SDS011;4482;54.332;10.118;2022-09-09T09:00:39;14.63;;;13.13;;
8891;SDS011;4482;54.332;10.118;2022-09-09T09:03:15;19.43;;;14.10;;
8891;SDS011;4482;54.332;10.118;2022-09-09T09:05:51;18.57;;;14.53;;
8891;SDS011;4482;54.332;10.118;2022-09-09T09:08:25;17.47;;;14.40;;
8891;SDS011;4482;54.332;10.118;2022-09-09T09:10:57;18.20;;;14.27;;
8891;SDS011;4482;54.332;10.118;2022-09-09T09:13:27;16.23;;;14.57;;
8891;SDS011;4482;54.332;10.118;2022-09-09T09:16:02;19.10;;;15.33;;
8891;SDS011;4482;54.332;10.118;2022-09-09T09:18:37;15.67;;;14.00;;
8891;SDS011;4482;54.332;10.118;2022-09-09T09:21:05;17.47;;;14.53;;
8891;SDS011;4482;54.332;10.118;2022-09-09T09:23:41;16.87;;;14.87;;
8891;SDS011;4482;54.332;10.118;2022-09-09T09:26:14;18.57;;;15.37;;
8891;SDS011;4482;54.332;10.118;2022-09-09T09:28:41;16.17;;;13.90;;
8891;SDS011;4482;54.332;10.118;2022-09-09T09:31:10;15.33;;;13.83;;
8891;SDS011;4482;54.332;10.118;2022-09-09T09:33:41;16.43;;;13.77;;
8891;SDS011;4482;54.332;10.118;2022-09-09T09:36:13;14.37;;;12.90;;
8891;SDS011;4482;54.332;10.118;2022-09-09T09:38:51;13.80;;;12.40;;
8891;SDS011;4482;54.332;10.118;2022-09-09T09:41:28;15.03;;;12.50;;
8891;SDS011;4482;54.332;10.118;2022-09-09T09:43:56;13.60;;;12.27;;
8891;SDS011;4482;54.332;10.118;2022-09-09T09:46:24;13.50;;;12.30;;
8891;SDS011;4482;54.332;10.118;2022-09-09T09:48:58;13.43;;;12.13;;
8891;SDS011;4482;54.332;10.118;2022-09-09T09:51:26;12.30;;;11.30;;
8891;SDS011;4482;54.332;10.118;2022-09-09T09:54:01;13.53;;;12.23;;
8891;SDS011;4482;54.332;10.118;2022-09-09T09:56:34;13.80;;;12.40;;
8891;SDS011;4482;54.332;10.118;2022-09-09T09:59:02;13.13;;;11.83;;
8891;SDS011;4482;54.332;10.118;2022-09-09T10:01:33;15.23;;;12.37;;
8891;SDS011;4482;54.332;10.118;2022-09-09T10:04:02;12.67;;;10.77;;
8891;SDS011;4482;54.332;10.118;2022-09-09T10:06:41;13.57;;;10.90;;
8891;SDS011;4482;54.332;10.118;2022-09-09T10:09:18;11.80;;;10.60;;
8891;SDS011;4482;54.332;10.118;2022-09-09T10:11:50;10.50;;;9.60;;
8891;SDS011;4482;54.332;10.118;2022-09-09T10:14:24;10.07;;;8.87;;
8891;SDS011;4482;54.332;10.118;2022-09-09T10:17:12;9.10;;;8.30;;
8891;SDS011;4482;54.332;10.118;2022-09-09T10:19:51;10.33;;;8.97;;
8891;SDS011;4482;54.332;10.118;2022-09-09T10:22:27;8.60;;;7.80;;
8891;SDS011;4482;54.332;10.118;2022-09-09T10:25:01;8.03;;;7.43;;
8891;SDS011;4482;54.332;10.118;2022-09-09T10:27:42;7.63;;;6.93;;
8891;SDS011;4482;54.332;10.118;2022-09-09T10:30:26;10.03;;;7.53;;
8891;SDS011;4482;54.332;10.118;2022-09-09T10:33:08;6.67;;;6.27;;
8891;SDS011;4482;54.332;10.118;2022-09-09T10:35:59;11.13;;;6.43;;
8891;SDS011;4482;54.332;10.118;2022-09-09T10:38:33;7.03;;;6.53;;
8891;SDS011;4482;54.332;10.118;2022-09-09T10:44:12;6.43;;;5.80;;
8891;SDS011;4482;54.332;10.118;2022-09-09T10:46:51;6.13;;;5.47;;
8891;SDS011;4482;54.332;10.118;2022-09-09T10:49:33;5.10;;;4.80;;
8891;SDS011;4482;54.332;10.118;2022-09-09T10:52:19;4.43;;;3.97;;
8891;SDS011;4482;54.332;10.118;2022-09-09T10:55:09;4.10;;;3.13;;
8891;SDS011;4482;54.332;10.118;2022-09-09T10:57:42;5.23;;;3.00;;
8891;SDS011;4482;54.332;10.118;2022-09-09T11:00:30;4.97;;;3.30;;
8891;SDS011;4482;54.332;10.118;2022-09-09T11:03:10;3.47;;;2.90;;
8891;SDS011;4482;54.332;10.118;2022-09-09T11:06:02;4.97;;;2.80;;
8891;SDS011;4482;54.332;10.118;2022-09-09T11:08:32;3.40;;;2.80;;
8891;SDS011;4482;54.332;10.118;2022-09-09T11:11:07;4.50;;;2.80;;
8891;SDS011;4482;54.332;10.118;2022-09-09T11:13:39;2.83;;;2.57;;
8891;SDS011;4482;54.332;10.118;2022-09-09T11:16:16;3.13;;;2.63;;
8891;SDS011;4482;54.332;10.118;2022-09-09T11:18:50;3.47;;;2.40;;
8891;SDS011;4482;54.332;10.118;2022-09-09T11:21:29;3.47;;;2.50;;
8891;SDS011;4482;54.332;10.118;2022-09-09T11:24:10;2.40;;;2.20;;
8891;SDS011;4482;54.332;10.118;2022-09-09T11:26:42;5.17;;;1.83;;
8891;SDS011;4482;54.332;10.118;2022-09-09T11:29:27;2.57;;;1.90;;
8891;SDS011;4482;54.332;10.118;2022-09-09T11:32:16;1.80;;;1.67;;
8891;SDS011;4482;54.332;10.118;2022-09-09T11:35:01;1.93;;;1.83;;
8891;SDS011;4482;54.332;10.118;2022-09-09T11:37:55;1.50;;;1.40;;
8891;SDS011;4482;54.332;10.118;2022-09-09T11:40:36;3.17;;;1.40;;
8891;SDS011;4482;54.332;10.118;2022-09-09T11:43:04;1.60;;;1.50;;
8891;SDS011;4482;54.332;10.118;2022-09-09T11:45:38;1.93;;;1.37;;
8891;SDS011;4482;54.332;10.118;2022-09-09T11:48:22;1.40;;;1.30;;
8891;SDS011;4482;54.332;10.118;2022-09-09T11:50:57;1.80;;;1.70;;
8891;SDS011;4482;54.332;10.118;2022-09-09T11:53:26;1.93;;;1.70;;
8891;SDS011;4482;54.332;10.118;2022-09-09T11:56:00;3.13;;;1.90;;
8891;SDS011;4482;54.332;10.118;2022-09-09T11:58:36;2.53;;;1.50;;
8891;SDS011;4482;54.332;10.118;2022-09-09T12:01:15;1.70;;;1.60;;
8891;SDS011;4482;54.332;10.118;2022-09-09T12:03:55;3.23;;;1.80;;
8891;SDS011;4482;54.332;10.118;2022-09-09T12:06:41;3.73;;;1.63;;
8891;SDS011;4482;54.332;10.118;2022-09-09T12:09:17;1.73;;;1.63;;
8891;SDS011;4482;54.332;10.118;2022-09-09T12:11:48;2.87;;;1.90;;
8891;SDS011;4482;54.332;10.118;2022-09-09T12:14:22;4.17;;;1.63;;
8891;SDS011;4482;54.332;10.118;2022-09-09T12:17:09;1.33;;;1.23;;
8891;SDS011;4482;54.332;10.118;2022-09-09T12:19:43;4.03;;;1.93;;
8891;SDS011;4482;54.332;10.118;2022-09-09T12:22:12;1.40;;;1.30;;
8891;SDS011;4482;54.332;10.118;2022-09-09T12:24:48;1.57;;;1.47;;
8891;SDS011;4482;54.332;10.118;2022-09-09T12:27:22;1.50;;;1.40;;
8891;SDS011;4482;54.332;10.118;2022-09-09T12:29:54;1.30;;;1.20;;
8891;SDS011;4482;54.332;10.118;2022-09-09T12:32:25;1.27;;;1.17;;
8891;SDS011;4482;54.332;10.118;2022-09-09T12:34:54;1.83;;;1.47;;
8891;SDS011;4482;54.332;10.118;2022-09-09T12:37:26;1.17;;;1.17;;
8891;SDS011;4482;54.332;10.118;2022-09-09T12:39:58;1.77;;;1.33;;
8891;SDS011;4482;54.332;10.118;2022-09-09T12:42:27;1.83;;;1.33;;
8891;SDS011;4482;54.332;10.118;2022-09-09T12:44:55;1.23;;;1.13;;
8891;SDS011;4482;54.332;10.118;2022-09-09T12:47:25;1.60;;;1.27;;
8891;SDS011;4482;54.332;10.118;2022-09-09T12:49:58;1.43;;;1.40;;
8891;SDS011;4482;54.332;10.118;2022-09-09T12:52:27;1.67;;;1.33;;
8891;SDS011;4482;54.332;10.118;2022-09-09T12:54:59;0.90;;;0.90;;
8891;SDS011;4482;54.332;10.118;2022-09-09T12:57:30;1.23;;;1.23;;
8891;SDS011;4482;54.332;10.118;2022-09-09T13:00:05;7.67;;;4.60;;
8891;SDS011;4482;54.332;10.118;2022-09-09T13:02:44;5.00;;;3.10;;
8891;SDS011;4482;54.332;10.118;2022-09-09T13:05:13;3.50;;;2.47;;
8891;SDS011;4482;54.332;10.118;2022-09-09T13:07:42;2.63;;;1.40;;
8891;SDS011;4482;54.332;10.118;2022-09-09T13:10:12;1.40;;;1.33;;
8891;SDS011;4482;54.332;10.118;2022-09-09T13:12:40;1.40;;;1.23;;
8891;SDS011;4482;54.332;10.118;2022-09-09T13:15:14;1.43;;;1.10;;
8891;SDS011;4482;54.332;10.118;2022-09-09T13:17:54;1.33;;;1.30;;
8891;SDS011;4482;54.332;10.118;2022-09-09T13:20:23;1.97;;;1.40;;
8891;SDS011;4482;54.332;10.118;2022-09-09T13:22:51;2.50;;;1.00;;
8891;SDS011;4482;54.332;10.118;2022-09-09T13:25:25;1.40;;;1.30;;
8891;SDS011;4482;54.332;10.118;2022-09-09T13:27:54;1.23;;;1.10;;
8891;SDS011;4482;54.332;10.118;2022-09-09T13:30:23;1.27;;;1.17;;
8891;SDS011;4482;54.332;10.118;2022-09-09T13:35:49;1.77;;;1.37;;
8891;SDS011;4482;54.332;10.118;2022-09-09T13:38:18;2.63;;;1.30;;
8891;SDS011;4482;54.332;10.118;2022-09-09T13:40:55;1.00;;;1.00;;
8891;SDS011;4482;54.332;10.118;2022-09-09T13:43:27;4.53;;;2.07;;
8891;SDS011;4482;54.332;10.118;2022-09-09T13:45:55;2.73;;;1.70;;
8891;SDS011;4482;54.332;10.118;2022-09-09T13:48:24;1.40;;;1.30;;
8891;SDS011;4482;54.332;10.118;2022-09-09T13:51:01;1.10;;;1.10;;
8891;SDS011;4482;54.332;10.118;2022-09-09T13:53:31;1.77;;;1.17;;
8891;SDS011;4482;54.332;10.118;2022-09-09T13:55:59;2.07;;;1.57;;
8891;SDS011;4482;54.332;10.118;2022-09-09T13:58:26;2.13;;;1.70;;
8891;SDS011;4482;54.332;10.118;2022-09-09T14:00:55;2.27;;;1.40;;
8891;SDS011;4482;54.332;10.118;2022-09-09T14:03:22;1.47;;;1.23;;
8891;SDS011;4482;54.332;10.118;2022-09-09T14:05:49;1.70;;;1.57;;
8891;SDS011;4482;54.332;10.118;2022-09-09T14:08:20;2.57;;;1.63;;
8891;SDS011;4482;54.332;10.118;2022-09-09T14:10:50;1.27;;;1.20;;
8891;SDS011;4482;54.332;10.118;2022-09-09T14:13:18;1.43;;;1.33;;
8891;SDS011;4482;54.332;10.118;2022-09-09T14:15:47;1.93;;;1.50;;
8891;SDS011;4482;54.332;10.118;2022-09-09T14:18:15;2.03;;;1.83;;
8891;SDS011;4482;54.332;10.118;2022-09-09T14:20:43;4.13;;;1.83;;
8891;SDS011;4482;54.332;10.118;2022-09-09T14:23:10;2.83;;;1.53;;
8891;SDS011;4482;54.332;10.118;2022-09-09T14:25:41;6.53;;;1.73;;
8891;SDS011;4482;54.332;10.118;2022-09-09T14:28:10;2.27;;;1.43;;
8891;SDS011;4482;54.332;10.118;2022-09-09T14:30:39;1.53;;;1.30;;
8891;SDS011;4482;54.332;10.118;2022-09-09T14:33:07;2.00;;;1.37;;
8891;SDS011;4482;54.332;10.118;2022-09-09T14:35:35;2.03;;;1.57;;
8891;SDS011;4482;54.332;10.118;2022-09-09T14:38:03;1.60;;;1.50;;
8891;SDS011;4482;54.332;10.118;2022-09-09T14:40:30;1.37;;;1.20;;
8891;SDS011;4482;54.332;10.118;2022-09-09T14:42:58;4.60;;;2.00;;
8891;SDS011;4482;54.332;10.118;2022-09-09T14:45:25;3.10;;;1.53;;
8891;SDS011;4482;54.332;10.118;2022-09-09T14:47:54;2.30;;;1.77;;
8891;SDS011;4482;54.332;10.118;2022-09-09T14:50:21;1.37;;;1.33;;
8891;SDS011;4482;54.332;10.118;2022-09-09T14:52:49;1.70;;;1.60;;
8891;SDS011;4482;54.332;10.118;2022-09-09T14:55:16;2.30;;;1.30;;
8891;SDS011;4482;54.332;10.118;2022-09-09T14:57:44;1.90;;;1.60;;
8891;SDS011;4482;54.332;10.118;2022-09-09T15:00:11;2.60;;;2.03;;
8891;SDS011;4482;54.332;10.118;2022-09-09T15:02:38;1.83;;;1.60;;
8891;SDS011;4482;54.332;10.118;2022-09-09T15:05:07;2.00;;;1.77;;
8891;SDS011;4482;54.332;10.118;2022-09-09T15:07:35;3.67;;;2.30;;
8891;SDS011;4482;54.332;10.118;2022-09-09T15:10:03;4.83;;;4.50;;
8891;SDS011;4482;54.332;10.118;2022-09-09T15:12:31;3.47;;;3.20;;
8891;SDS011;4482;54.332;10.118;2022-09-09T15:15:00;4.27;;;3.27;;
8891;SDS011;4482;54.332;10.118;2022-09-09T15:17:27;4.83;;;3.33;;
8891;SDS011;4482;54.332;10.118;2022-09-09T15:19:54;5.90;;;4.17;;
8891;SDS011;4482;54.332;10.118;2022-09-09T15:22:22;7.27;;;3.30;;
8891;SDS011;4482;54.332;10.118;2022-09-09T15:24:49;7.83;;;3.57;;
8891;SDS011;4482;54.332;10.118;2022-09-09T15:27:16;3.87;;;2.97;;
8891;SDS011;4482;54.332;10.118;2022-09-09T15:29:43;5.50;;;3.40;;
8891;SDS011;4482;54.332;10.118;2022-09-09T15:32:10;4.23;;;3.10;;
8891;SDS011;4482;54.332;10.118;2022-09-09T15:34:37;4.00;;;2.23;;
8891;SDS011;4482;54.332;10.118;2022-09-09T15:37:04;4.67;;;1.97;;
8891;SDS011;4482;54.332;10.118;2022-09-09T15:39:33;5.63;;;1.70;;
8891;SDS011;4482;54.332;10.118;2022-09-09T15:42:00;3.37;;;2.07;;
8891;SDS011;4482;54.332;10.118;2022-09-09T15:44:27;3.23;;;2.70;;
8891;SDS011;4482;54.332;10.118;2022-09-09T15:46:54;3.10;;;2.80;;
8891;SDS011;4482;54.332;10.118;2022-09-09T15:49:22;4.57;;;3.10;;
8891;SDS011;4482;54.332;10.118;2022-09-09T15:51:51;3.13;;;2.93;;
8891;SDS011;4482;54.332;10.118;2022-09-09T15:54:19;3.60;;;3.30;;
8891;SDS011;4482;54.332;10.118;2022-09-09T15:56:51;3.40;;;3.20;;
8891;SDS011;4482;54.332;10.118;2022-09-09T15:59:20;3.30;;;3.10;;
8891;SDS011;4482;54.332;10.118;2022-09-09T16:01:47;4.40;;;2.97;;
8891;SDS011;4482;54.332;10.118;2022-09-09T16:04:14;3.43;;;2.97;;
8891;SDS011;4482;54.332;10.118;2022-09-09T16:06:48;2.80;;;2.60;;
8891;SDS011;4482;54.332;10.118;2022-09-09T16:09:16;6.77;;;3.37;;
8891;SDS011;4482;54.332;10.118;2022-09-09T16:11:43;4.00;;;3.23;;
8891;SDS011;4482;54.332;10.118;2022-09-09T16:14:11;4.10;;;3.43;;
8891;SDS011;4482;54.332;10.118;2022-09-09T16:16:38;49.50;;;34.10;;
8891;SDS011;4482;54.332;10.118;2022-09-09T16:19:07;7.90;;;6.37;;
8891;SDS011;4482;54.332;10.118;2022-09-09T16:21:36;8.40;;;6.50;;
8891;SDS011;4482;54.332;10.118;2022-09-09T16:24:05;21.50;;;14.00;;
8891;SDS011;4482;54.332;10.118;2022-09-09T16:26:33;5.10;;;4.60;;
8891;SDS011;4482;54.332;10.118;2022-09-09T16:29:01;4.07;;;3.80;;
8891;SDS011;4482;54.332;10.118;2022-09-09T16:31:30;9.47;;;8.50;;
8891;SDS011;4482;54.332;10.118;2022-09-09T16:33:58;7.47;;;6.70;;
8891;SDS011;4482;54.332;10.118;2022-09-09T16:36:25;12.23;;;8.97;;
8891;SDS011;4482;54.332;10.118;2022-09-09T16:38:57;8.10;;;6.10;;
8891;SDS011;4482;54.332;10.118;2022-09-09T16:41:29;7.53;;;6.33;;
8891;SDS011;4482;54.332;10.118;2022-09-09T16:44:13;4.17;;;3.87;;
8891;SDS011;4482;54.332;10.118;2022-09-09T16:47:11;5.10;;;3.40;;
8891;SDS011;4482;54.332;10.118;2022-09-09T16:53:04;5.80;;;3.63;;
8891;SDS011;4482;54.332;10.118;2022-09-09T16:55:39;6.03;;;4.70;;
8891;SDS011;4482;54.332;10.118;2022-09-09T16:58:12;27.67;;;20.50;;
8891;SDS011;4482;54.332;10.118;2022-09-09T17:00:47;7.57;;;6.70;;
8891;SDS011;4482;54.332;10.118;2022-09-09T17:03:17;4.27;;;3.87;;
8891;SDS011;4482;54.332;10.118;2022-09-09T17:05:45;4.77;;;4.10;;
8891;SDS011;4482;54.332;10.118;2022-09-09T17:08:12;7.30;;;6.60;;
8891;SDS011;4482;54.332;10.118;2022-09-09T17:10:40;18.10;;;13.03;;
8891;SDS011;4482;54.332;10.118;2022-09-09T17:13:08;6.13;;;5.53;;
8891;SDS011;4482;54.332;10.118;2022-09-09T17:15:38;6.13;;;4.63;;
8891;SDS011;4482;54.332;10.118;2022-09-09T17:18:07;4.73;;;4.43;;
8891;SDS011;4482;54.332;10.118;2022-09-09T17:20:36;7.43;;;6.47;;
8891;SDS011;4482;54.332;10.118;2022-09-09T17:23:04;11.50;;;7.80;;
8891;SDS011;4482;54.332;10.118;2022-09-09T17:25:31;11.73;;;8.00;;
8891;SDS011;4482;54.332;10.118;2022-09-09T17:27:59;12.17;;;9.10;;
8891;SDS011;4482;54.332;10.118;2022-09-09T17:30:27;13.70;;;9.20;;
8891;SDS011;4482;54.332;10.118;2022-09-09T17:32:55;18.43;;;12.63;;
8891;SDS011;4482;54.332;10.118;2022-09-09T17:35:22;12.37;;;9.93;;
8891;SDS011;4482;54.332;10.118;2022-09-09T17:37:50;55.00;;;38.23;;
8891;SDS011;4482;54.332;10.118;2022-09-09T17:40:19;16.07;;;12.20;;
8891;SDS011;4482;54.332;10.118;2022-09-09T17:42:46;5.33;;;4.93;;
8891;SDS011;4482;54.332;10.118;2022-09-09T17:45:13;4.90;;;4.43;;
8891;SDS011;4482;54.332;10.118;2022-09-09T17:47:41;4.30;;;4.00;;
8891;SDS011;4482;54.332;10.118;2022-09-09T17:50:09;6.57;;;4.73;;
8891;SDS011;4482;54.332;10.118;2022-09-09T17:52:37;9.20;;;5.97;;
8891;SDS011;4482;54.332;10.118;2022-09-09T17:55:10;5.70;;;4.30;;